WXM80 ListenWXM80 Stop

You find our weather info also at:

UK Metoffice

WeatherCloud

Weather Underground

Northeastern Weather Network

AWEKAS

Citizen Weather Observer Program (CWOP)

HAMweather, WeatherForYou, PWS Weather


Weather Underground History page Text

Daily Summary for December 13, 2017 Units:  Metric    English   Both
« Previous Day
Next Day »
Daily Weekly Monthly Yearly Custom
  High: Low: Average:
Temperature: -17.8 °C -5.4 °C -2.9 °C
Dew Point: -17.8 °C -12.2 °C -10.5 °C
Humidity: Humidity % 44 % 56 %
Wind Speed: 0 km/h 1.6 km/h 13.8 km/h
Wind Gust: 0 km/h - -
Wind:- - West
Pressure: 0 hPa 996.5 hPa -
Precipitation: 0 mm    
Historical Graphs
 
 
Tabular Data for December 13, 2017
Time Temperature Dew Point Pressure Wind Wind Speed Wind Gust Humidity Rainfall Rate (Hourly)
-17.8 °C -17.8 °C 0 hPa Calm     Humidity % 0 mm
00:01 0.4 °C -5.4 °C 996.8 hPa WNW 13.5 km/h 29.6 km/h 65 % 0 mm
00:16 0.1 °C -6.6 °C 996.8 hPa WNW 8.7 km/h 20.9 km/h 61 % 0 mm
00:21 0 °C -6.4 °C 996.5 hPa NW 11.9 km/h 22.2 km/h 62 % 0 mm
00:27 -0.2 °C -6.4 °C 996.8 hPa WNW 7.6 km/h 25.9 km/h 63 % 0 mm
00:32 -0.3 °C -6.9 °C 996.8 hPa NW 13.8 km/h 24.1 km/h 61 % 0 mm
00:37 -0.4 °C -7 °C 997.2 hPa NW 12.7 km/h 24.1 km/h 61 % 0 mm
00:42 -0.4 °C -6.6 °C 997.2 hPa WNW 15.3 km/h 20.4 km/h 63 % 0 mm
00:47 -0.6 °C -6.9 °C 997.5 hPa NNW 10.6 km/h 16.7 km/h 62 % 0 mm
00:52 -0.7 °C -7.7 °C 997.5 hPa NNW 16.6 km/h 31.5 km/h 59 % 0 mm
00:57 -0.9 °C -7.7 °C 997.9 hPa NW 8.5 km/h 20.4 km/h 60 % 0 mm
01:02 -1.1 °C -7.8 °C 997.5 hPa WNW 10.6 km/h 27.8 km/h 60 % 0 mm
01:12 -1.3 °C -7.8 °C 997.5 hPa West 15.8 km/h 27.8 km/h 61 % 0 mm
01:17 -1.4 °C -8.4 °C 997.9 hPa NW 18.2 km/h 29 km/h 59 % 0 mm
01:32 -1.7 °C -8.7 °C 997.9 hPa NW 13.4 km/h 29.6 km/h 59 % 0 mm
01:37 -1.7 °C -8.7 °C 997.9 hPa WNW 16.1 km/h 33.3 km/h 59 % 0 mm
01:47 -1.9 °C -8.6 °C 997.9 hPa WSW 13.7 km/h 24.1 km/h 60 % 0 mm
01:53 -1.9 °C -8.3 °C 997.9 hPa WNW 15.4 km/h 27.8 km/h 62 % 0 mm
01:58 -2.1 °C -8.2 °C 997.9 hPa West 15.8 km/h 27.8 km/h 63 % 0 mm
02:03 -2.1 °C -8.6 °C 997.9 hPa West 15.4 km/h 24.1 km/h 61 % 0 mm
02:08 -2.2 °C -8.7 °C 998.2 hPa West 15.3 km/h 25.9 km/h 61 % 0 mm
02:13 -2.3 °C -9.3 °C 998.2 hPa WNW 14.8 km/h 31.5 km/h 59 % 0 mm
02:23 -2.6 °C -9.6 °C 998.2 hPa NW 13.4 km/h 31.5 km/h 59 % 0 mm
02:28 -2.7 °C -9.8 °C 997.9 hPa WNW 10.8 km/h 24.1 km/h 58 % 0 mm
02:33 -2.8 °C -9.5 °C 998.2 hPa WNW 17.4 km/h 19.3 km/h 60 % 0 mm
02:43 -3 °C -9.9 °C 997.9 hPa WNW 15.8 km/h 29.6 km/h 59 % 0 mm
02:53 -3.2 °C -9.6 °C 997.9 hPa NNW 11.1 km/h 14.8 km/h 61 % 0 mm
02:58 -3.2 °C -9.2 °C 997.9 hPa WNW 15.3 km/h 24.1 km/h 63 % 0 mm
03:03 -3.2 °C -9.3 °C 997.9 hPa WNW 7.6 km/h 18.5 km/h 63 % 0 mm
03:13 -3.4 °C -10.7 °C 997.9 hPa NW 12.7 km/h 29.6 km/h 57 % 0 mm
03:24 -3.6 °C -10.7 °C 997.5 hPa WNW 16.1 km/h 27.8 km/h 58 % 0 mm
03:29 -3.7 °C -11 °C 997.5 hPa SW 17.1 km/h 31.5 km/h 57 % 0 mm
03:34 -3.8 °C -11.1 °C 997.5 hPa WSW 23.5 km/h 32.2 km/h 57 % 0 mm
03:44 -4.2 °C -11.7 °C 997.9 hPa WSW 20.8 km/h 40.2 km/h 56 % 0 mm
03:49 -4.2 °C -11.5 °C 997.9 hPa WNW 17.2 km/h 31.5 km/h 57 % 0 mm
03:54 -4.3 °C -11.8 °C 997.5 hPa WNW 18.3 km/h 31.5 km/h 56 % 0 mm
03:59 -4.4 °C -11.7 °C 997.5 hPa SW 14.5 km/h 25.9 km/h 57 % 0 mm
04:09 -4.5 °C -11.7 °C 997.5 hPa WSW 19.5 km/h 46.3 km/h 57 % 0 mm
04:29 -4.8 °C -11.8 °C 997.5 hPa SW 17.1 km/h 33.3 km/h 58 % 0 mm
04:34 -4.8 °C -11.8 °C 997.9 hPa WSW 17.4 km/h 42.6 km/h 58 % 0 mm
04:36 -4.8 °C -12.1 °C 997.5 hPa West 20.4 km/h 31.5 km/h 57 % 0 mm
04:41 -4.9 °C -12.2 °C 997.9 hPa NW 22 km/h 40.7 km/h 57 % 0 mm
04:51 -5.1 °C -11.8 °C 997.5 hPa NNW 16.4 km/h 25.7 km/h 59 % 0 mm
04:56 -5.1 °C -11.6 °C 997.9 hPa WNW 26.2 km/h 37 km/h 60 % 0 mm
05:01 -5.1 °C -12.1 °C 997.9 hPa WNW 17.2 km/h 40.2 km/h 58 % 0 mm
05:06 -5.1 °C -11.4 °C 997.9 hPa WSW 18.2 km/h 31.5 km/h 61 % 0 mm
05:21 -5.1 °C -11.6 °C 997.9 hPa West 21.1 km/h 48.1 km/h 60 % 0 mm
05:26 -5.1 °C -11.6 °C 997.9 hPa West 22.4 km/h 42.6 km/h 60 % 0 mm
05:31 -5.1 °C -12.1 °C 997.9 hPa West 15.6 km/h 22.2 km/h 58 % 0 mm
05:36 -5.2 °C -12.2 °C 997.9 hPa NW 16.9 km/h 35.2 km/h 58 % 0 mm
05:43 -5.2 °C -11.7 °C 997.9 hPa West 10.1 km/h 20.9 km/h 60 % 0 mm
05:48 -5.2 °C -11.5 °C 997.9 hPa West 20.3 km/h 35.2 km/h 61 % 0 mm
05:53 -5.2 °C -11.5 °C 997.9 hPa West 16.4 km/h 31.5 km/h 61 % 0 mm
05:58 -5.2 °C -11.5 °C 998.2 hPa NW 20.8 km/h 35.2 km/h 61 % 0 mm
06:03 -5.2 °C -11.7 °C 998.2 hPa WNW 16.9 km/h 32.2 km/h 60 % 0 mm
06:08 -5.2 °C -11.5 °C 998.2 hPa West 20.9 km/h 31.5 km/h 61 % 0 mm
06:23 -5.2 °C -11.6 °C 998.2 hPa West 9.7 km/h 35.2 km/h 61 % 0 mm
06:28 -5.2 °C -11.6 °C 998.2 hPa NW 15.3 km/h 30.6 km/h 61 % 0 mm
06:33 -5.2 °C -11.2 °C 998.2 hPa WNW 13.4 km/h 18.5 km/h 63 % 0 mm
06:38 -5.2 °C -11.4 °C 998.2 hPa NW 18.3 km/h 33.3 km/h 62 % 0 mm
06:44 -5.3 °C -11.4 °C 998.2 hPa WNW 14 km/h 30.6 km/h 62 % 0 mm
06:49 -5.3 °C -11.6 °C 998.5 hPa WNW 17.4 km/h 31.5 km/h 61 % 0 mm
06:54 -5.3 °C -11.5 °C 998.5 hPa WNW 19.8 km/h 31.5 km/h 62 % 0 mm
07:10 -5.3 °C -11.5 °C 998.5 hPa WNW 11.7 km/h 18.5 km/h 62 % 0 mm
07:15 -5.3 °C -11.5 °C 998.9 hPa WSW 18.7 km/h 31.5 km/h 62 % 0 mm
07:20 -5.3 °C -11.7 °C 998.9 hPa WSW 17.7 km/h 31.5 km/h 61 % 0 mm
07:25 -5.4 °C -11.6 °C 998.9 hPa West 20.6 km/h 29.6 km/h 62 % 0 mm
07:30 -5.4 °C -11.7 °C 998.9 hPa West 20.9 km/h 38.9 km/h 61 % 0 mm
07:35 -5.4 °C -11.7 °C 998.9 hPa NW 10.8 km/h 22.2 km/h 61 % 0 mm
07:40 -5.3 °C -11.3 °C 998.9 hPa NNW 17.9 km/h 33.3 km/h 63 % 0 mm
07:45 -5.3 °C -11.7 °C 999.2 hPa WNW 15.6 km/h 24.1 km/h 61 % 0 mm
07:51 -5.3 °C -11.6 °C 998.9 hPa West 14.5 km/h 40.2 km/h 61 % 0 mm
07:56 -5.3 °C -11.8 °C 999.2 hPa West 14.5 km/h 46.7 km/h 60 % 0 mm
08:01 -5.3 °C -11.6 °C 999.2 hPa NW 11.9 km/h 31.5 km/h 61 % 0 mm
08:06 -5.2 °C -11.4 °C 999.2 hPa WSW 5.8 km/h 25.7 km/h 62 % 0 mm
08:11 -5.2 °C -11.3 °C 999.2 hPa WNW 14.3 km/h 31.5 km/h 62 % 0 mm
08:21 -5.1 °C -11.7 °C 999.5 hPa West 19.8 km/h 31.5 km/h 60 % 0 mm
08:26 -5.1 °C -11.5 °C 999.2 hPa NNW 15.8 km/h 31.5 km/h 61 % 0 mm
08:31 -5.1 °C -11.6 °C 999.5 hPa WNW 15.8 km/h 31.5 km/h 60 % 0 mm
08:36 -5.1 °C -11.2 °C 999.5 hPa WSW 13.2 km/h 20.9 km/h 62 % 0 mm
08:41 -5 °C -11.4 °C 999.5 hPa West 10.8 km/h 27.8 km/h 61 % 0 mm
08:46 -4.9 °C -11.3 °C 999.9 hPa NW 18.2 km/h 38.9 km/h 61 % 0 mm
08:51 -4.9 °C -11.4 °C 999.9 hPa SW 19.2 km/h 27.8 km/h 60 % 0 mm
09:02 -4.9 °C -11.1 °C 999.5 hPa NW 19.3 km/h 40.7 km/h 62 % 0 mm
09:12 -4.8 °C -11.6 °C 999.9 hPa WNW 17.9 km/h 42.6 km/h 59 % 0 mm
09:17 -4.8 °C -11.6 °C 999.9 hPa WSW 14.6 km/h 33.8 km/h 59 % 0 mm
09:22 -4.8 °C -11.8 °C 999.9 hPa WNW 20.1 km/h 40.7 km/h 58 % 0 mm
09:27 -4.7 °C -11.9 °C 999.9 hPa WNW 16.9 km/h 33.8 km/h 57 % 0 mm
09:37 -4.8 °C -12 °C 999.9 hPa NW 16.6 km/h 35.2 km/h 57 % 0 mm
09:42 -4.7 °C -11.7 °C 999.9 hPa WSW 17.9 km/h 33.3 km/h 58 % 0 mm
09:47 -4.7 °C -11.7 °C 1000.2 hPa West 23.5 km/h 37 km/h 58 % 0 mm
09:52 -4.7 °C -11.9 °C 1000.2 hPa NW 15.6 km/h 16.7 km/h 57 % 0 mm
09:57 -4.6 °C -11.6 °C 1000.2 hPa WNW 22.7 km/h 31.5 km/h 58 % 0 mm
10:07 -4.6 °C -11.8 °C 999.9 hPa West 13 km/h 31.5 km/h 57 % 0 mm
10:12 -4.5 °C -11.5 °C 999.9 hPa North 17.4 km/h 31.5 km/h 58 % 0 mm
10:17 -4.4 °C -11.2 °C 999.9 hPa West 15.3 km/h 31.5 km/h 59 % 0 mm
10:22 -4.3 °C -11.4 °C 999.9 hPa West 23.7 km/h 37 km/h 58 % 0 mm
10:27 -4.3 °C -11.8 °C 999.9 hPa WSW 19.3 km/h 33.3 km/h 56 % 0 mm
10:32 -4.3 °C -11.6 °C 999.9 hPa WSW 14.5 km/h 20.4 km/h 57 % 0 mm
10:42 -4.2 °C -11.4 °C 999.9 hPa WSW 17.7 km/h 37 km/h 57 % 0 mm
10:48 -4.2 °C -10.8 °C 999.9 hPa WNW 14 km/h 44.4 km/h 60 % 0 mm
10:53 -4.2 °C -10.6 °C 999.9 hPa West 10.6 km/h 22.2 km/h 61 % 0 mm
10:58 -4.1 °C -10.1 °C 999.9 hPa West 15.6 km/h 22.2 km/h 63 % 0 mm
11:13 -4.1 °C -10.3 °C 999.9 hPa SW 16.6 km/h 25.9 km/h 62 % 0 mm
11:18 -4.1 °C -10.5 °C 999.5 hPa SSW 10.6 km/h 18.5 km/h 61 % 0 mm
11:23 -4.1 °C -10.1 °C 999.5 hPa NW 16.4 km/h 22.2 km/h 63 % 0 mm
11:28 -4 °C -9.6 °C 999.5 hPa WNW 10.3 km/h 20.9 km/h 65 % 0 mm
11:33 -3.9 °C -9.9 °C 999.9 hPa WNW 16.3 km/h 33.8 km/h 63 % 0 mm
11:43 -3.9 °C -9.8 °C 999.9 hPa WNW 21.6 km/h 38.9 km/h 64 % 0 mm
11:53 -3.9 °C -9.8 °C 999.9 hPa West 13.8 km/h 24.1 km/h 64 % 0 mm
12:08 -3.7 °C -9.7 °C 999.5 hPa West 13.5 km/h 30.6 km/h 63 % 0 mm
12:13 -3.6 °C -10.4 °C 999.9 hPa WNW 22.7 km/h 32.2 km/h 59 % 0 mm
12:23 -3.3 °C -9.9 °C 999.5 hPa WSW 14.6 km/h 37 km/h 60 % 0 mm
12:28 -3.1 °C -9.9 °C 999.5 hPa West 20.1 km/h 33.3 km/h 59 % 0 mm
12:34 -3 °C -9.9 °C 999.9 hPa NW 18.7 km/h 35.2 km/h 59 % 0 mm
12:39 -2.9 °C -10.1 °C 999.9 hPa NW 20.6 km/h 35.2 km/h 58 % 0 mm
12:44 -2.9 °C -10.1 °C 999.9 hPa WNW 7.6 km/h 24.1 km/h 58 % 0 mm
12:49 -2.9 °C -10.2 °C 999.9 hPa West 18.5 km/h 42.6 km/h 57 % 0 mm
12:54 -2.8 °C -10.4 °C 999.9 hPa West 16.9 km/h 29.6 km/h 56 % 0 mm
12:59 -2.7 °C -10.1 °C 999.9 hPa NNE 14.5 km/h 31.5 km/h 57 % 0 mm
13:04 -2.7 °C -10 °C 999.9 hPa WNW 18.8 km/h 38.9 km/h 57 % 0 mm
13:09 -2.5 °C -9.9 °C 999.9 hPa WNW 21.7 km/h 35.2 km/h 57 % 0 mm
13:14 -2.4 °C -9.8 °C 999.9 hPa WSW 21.4 km/h 40.7 km/h 57 % 0 mm
13:19 -2.3 °C -9.9 °C 999.9 hPa WSW 23 km/h 35.2 km/h 56 % 0 mm
13:24 -2.2 °C -9.4 °C 999.9 hPa NNW 17.9 km/h 31.5 km/h 58 % 0 mm
13:29 -2.1 °C -9.5 °C 999.9 hPa WNW 17.2 km/h 22.2 km/h 57 % 0 mm
13:35 -2 °C -9.6 °C 999.9 hPa West 16.4 km/h 40.7 km/h 56 % 0 mm
13:45 -1.8 °C -9.7 °C 999.9 hPa WNW 19.2 km/h 41.8 km/h 55 % 0 mm
13:50 -1.8 °C -9.7 °C 999.9 hPa NW 20.6 km/h 42.6 km/h 55 % 0 mm
13:55 -1.7 °C -9.6 °C 999.9 hPa WSW 19.5 km/h 35.4 km/h 55 % 0 mm
14:05 -1.6 °C -9.5 °C 1000.6 hPa WNW 15.8 km/h 38.6 km/h 55 % 0 mm
14:10 -1.6 °C -9.3 °C 1000.6 hPa NW 16.4 km/h 31.5 km/h 56 % 0 mm
14:15 -1.6 °C -9.9 °C 1000.6 hPa WNW 16.6 km/h 33.3 km/h 53 % 0 mm
14:25 -1.6 °C -10.2 °C 1000.6 hPa WNW 14.8 km/h 31.5 km/h 52 % 0 mm
14:30 -1.6 °C -10.2 °C 1000.6 hPa West 12.9 km/h 20.4 km/h 52 % 0 mm
14:35 -1.6 °C -9.9 °C 1000.9 hPa NNW 12.1 km/h 24.1 km/h 53 % 0 mm
14:40 -1.6 °C -9.9 °C 1000.9 hPa WNW 11.9 km/h 27.8 km/h 53 % 0 mm
14:45 -1.6 °C -10.2 °C 1001.2 hPa WSW 18.2 km/h 25.9 km/h 52 % 0 mm
14:50 -1.5 °C -10.6 °C 1000.9 hPa NW 17.5 km/h 31.5 km/h 50 % 0 mm
14:55 -1.4 °C -10.8 °C 1001.2 hPa West 22.9 km/h 35.2 km/h 49 % 0 mm
15:00 -1.4 °C -11.1 °C 1001.2 hPa WNW 16.1 km/h 33.8 km/h 48 % 0 mm
15:10 -1.3 °C -10.1 °C 1001.6 hPa NW 14.6 km/h 24.1 km/h 51 % 0 mm
15:15 -1.2 °C -10.1 °C 1001.6 hPa West 10.6 km/h 18.5 km/h 51 % 0 mm
15:20 -1.2 °C -10.6 °C 1001.6 hPa WNW 19 km/h 37 km/h 49 % 0 mm
15:25 -1.2 °C -11.6 °C 1001.6 hPa WNW 11.6 km/h 20.4 km/h 45 % 0 mm
15:30 -1.2 °C -11.6 °C 1001.6 hPa WSW 19.2 km/h 31.5 km/h 45 % 0 mm
15:35 -1.2 °C -11.9 °C 1001.6 hPa WNW 15.8 km/h 35.2 km/h 44 % 0 mm
15:40 -1.2 °C -11.3 °C 1001.6 hPa West 13.8 km/h 18.5 km/h 46 % 0 mm
15:45 -1.2 °C -11.6 °C 1001.9 hPa West 20 km/h 27.8 km/h 45 % 0 mm
16:00 -1.2 °C -11.9 °C 1001.6 hPa NW 15.9 km/h 40.7 km/h 44 % 0 mm
16:06 -1.2 °C -11.4 °C 1001.6 hPa West 12.9 km/h 40.2 km/h 46 % 0 mm
16:11 -1.2 °C -11.1 °C 1001.9 hPa WNW 12.9 km/h 22.5 km/h 47 % 0 mm
16:16 -1.2 °C -11.4 °C 1001.9 hPa West 12.9 km/h 33.8 km/h 46 % 0 mm
16:26 -1.2 °C -11.7 °C 1002.3 hPa West 14.5 km/h 35.4 km/h 45 % 0 mm
16:31 -1.2 °C -11.7 °C 1002.3 hPa West 14.5 km/h 29 km/h 45 % 0 mm
16:36 -1.3 °C -12 °C 1002.3 hPa WSW 9.7 km/h 24.1 km/h 44 % 0 mm
16:46 -1.3 °C -12.1 °C 1002.6 hPa West 9.7 km/h 24.1 km/h 44 % 0 mm
16:56 -1.3 °C -12.1 °C 1002.6 hPa West 12.9 km/h 32.2 km/h 44 % 0 mm
17:01 -1.3 °C -12.1 °C 1002.6 hPa West 15.9 km/h 24.1 km/h 44 % 0 mm
17:07 -1.3 °C -12.1 °C 1002.9 hPa WNW 14.8 km/h 24.1 km/h 44 % 0 mm
17:12 -1.4 °C -12.1 °C 1002.9 hPa West 10.6 km/h 18.5 km/h 44 % 0 mm
17:17 -1.4 °C -11.8 °C 1002.9 hPa WSW 12.7 km/h 20.4 km/h 45 % 0 mm
17:22 -1.4 °C -12.1 °C 1002.9 hPa West 16.9 km/h 31.5 km/h 44 % 0 mm
17:27 -1.4 °C -11.6 °C 1002.9 hPa West 11.7 km/h 22.2 km/h 46 % 0 mm
17:32 -1.4 °C -11.6 °C 1002.9 hPa West 11.6 km/h 31.5 km/h 46 % 0 mm
17:37 -1.4 °C -11.3 °C 1003.3 hPa WNW 8.5 km/h 18.5 km/h 47 % 0 mm
17:47 -1.5 °C -11.9 °C 1003.3 hPa West 10.9 km/h 19.3 km/h 45 % 0 mm
17:52 -1.5 °C -11.6 °C 1003.6 hPa WSW 17.4 km/h 24.1 km/h 46 % 0 mm
18:02 -1.5 °C -11.1 °C 1003.3 hPa WSW 12.9 km/h 27.8 km/h 48 % 0 mm
18:07 -1.5 °C -11.1 °C 1003.3 hPa WSW 7.6 km/h 25.9 km/h 48 % 0 mm
18:12 -1.5 °C -11.1 °C 1003.6 hPa SSW 13.5 km/h 31.5 km/h 48 % 0 mm
18:22 -1.5 °C -10.6 °C 1003.6 hPa NW 12.4 km/h 22.5 km/h 50 % 0 mm
18:27 -1.5 °C -10.8 °C 1003.9 hPa WNW 12.2 km/h 18.5 km/h 49 % 0 mm
18:37 -1.6 °C -10.9 °C 1003.9 hPa WSW 12.6 km/h 18.5 km/h 49 % 0 mm
18:41 -1.5 °C -10.6 °C 1003.9 hPa West 8 km/h 24.1 km/h 50 % 0 mm
18:51 -1.6 °C -10.7 °C 1003.9 hPa West 11.3 km/h 20.9 km/h 50 % 0 mm
18:56 -1.6 °C -10.7 °C 1003.9 hPa West 11.3 km/h 25.7 km/h 50 % 0 mm
19:01 -1.6 °C -10.4 °C 1003.9 hPa West 8.7 km/h 18.5 km/h 51 % 0 mm
19:06 -1.6 °C -10.4 °C 1003.9 hPa WNW 4.8 km/h 24.1 km/h 51 % 0 mm
19:11 -1.6 °C -10.4 °C 1003.9 hPa West 9.7 km/h 19.3 km/h 51 % 0 mm
19:16 -1.7 °C -10.5 °C 1004.3 hPa WSW 9.7 km/h 29 km/h 51 % 0 mm
19:21 -1.7 °C -10.5 °C 1004.3 hPa WNW 11.3 km/h 22.5 km/h 51 % 0 mm
19:31 -1.7 °C -10.5 °C 1004.3 hPa WSW 11.3 km/h 25.7 km/h 51 % 0 mm
19:41 -1.7 °C -10.2 °C 1004.3 hPa West 1.6 km/h 14.5 km/h 52 % 0 mm
19:51 -1.7 °C -10.3 °C 1004.3 hPa WNW 9.7 km/h 19.3 km/h 52 % 0 mm
19:56 -1.7 °C -10.1 °C 1004.3 hPa West 8 km/h 19.3 km/h 53 % 0 mm
20:01 -1.8 °C -9.9 °C 1004.3 hPa WSW 6 km/h 13 km/h 54 % 0 mm
20:06 -1.8 °C -9.9 °C 1004.3 hPa West 9 km/h 20.4 km/h 54 % 0 mm
20:16 -1.8 °C -10.2 °C 1004.3 hPa West 11.9 km/h 22.2 km/h 53 % 0 mm
20:21 -1.8 °C -10.2 °C 1003.9 hPa WSW 9.3 km/h 16.7 km/h 53 % 0 mm
20:26 -1.8 °C -9.9 °C 1003.9 hPa WNW 7.9 km/h 13 km/h 54 % 0 mm
20:31 -1.8 °C -10.2 °C 1003.9 hPa West 13.2 km/h 24.1 km/h 53 % 0 mm
20:36 -1.8 °C -9.9 °C 1003.9 hPa West 9 km/h 18.5 km/h 54 % 0 mm
20:41 -1.8 °C -9.9 °C 1004.3 hPa WNW 10.1 km/h 16.1 km/h 54 % 0 mm
20:46 -1.8 °C -9.9 °C 1003.9 hPa West 8 km/h 11.1 km/h 54 % 0 mm
20:51 -1.8 °C -9.9 °C 1003.9 hPa West 7.2 km/h 13 km/h 54 % 0 mm
20:56 -1.8 °C -9.7 °C 1003.9 hPa WNW 8.4 km/h 14.8 km/h 55 % 0 mm
21:01 -1.8 °C -9.9 °C 1003.9 hPa WSW 5.1 km/h 11.1 km/h 54 % 0 mm
21:03 -1.8 °C -9.9 °C 1003.9 hPa WSW 6.9 km/h 12.9 km/h 54 % 0 mm
21:08 -1.9 °C -10 °C 1003.9 hPa West 6 km/h 18.5 km/h 54 % 0 mm
21:13 -1.9 °C -10.1 °C 1003.6 hPa NW 4.3 km/h 14.8 km/h 54 % 0 mm
21:23 -1.9 °C -10.1 °C 1003.9 hPa West 8 km/h 13 km/h 54 % 0 mm
21:28 -2 °C -10.1 °C 1004.3 hPa SW 11.3 km/h 17.7 km/h 54 % 0 mm
21:38 -2.1 °C -9.9 °C 1003.9 hPa West 9.8 km/h 24.1 km/h 55 % 0 mm
21:43 -2.1 °C -9.9 °C 1004.3 hPa West 13.4 km/h 25.9 km/h 55 % 0 mm
21:53 -2.1 °C -9.9 °C 1003.9 hPa WNW 8.9 km/h 24.1 km/h 55 % 0 mm
21:58 -2.1 °C -9.9 °C 1004.3 hPa West 4.3 km/h 18.5 km/h 55 % 0 mm
22:03 -2.1 °C -9.7 °C 1004.3 hPa West 16.1 km/h 22.2 km/h 56 % 0 mm
22:13 -2.1 °C -9.9 °C 1004.6 hPa SW 9.3 km/h 20.4 km/h 55 % 0 mm
22:20 -2.1 °C -9.9 °C 1004.6 hPa West 14.5 km/h 27.8 km/h 55 % 0 mm
22:25 -2.1 °C -9.9 °C 996.8 hPa SW 13.2 km/h 27.8 km/h 55 % 0 mm
22:30 -2.1 °C -9.9 °C 1004.6 hPa West 8.9 km/h 24.1 km/h 55 % 0 mm
22:35 -2.1 °C -9.9 °C 1004.3 hPa West 7.6 km/h 16.7 km/h 55 % 0 mm
22:40 -2.1 °C -10.1 °C 1004.3 hPa WNW 7.7 km/h 16.7 km/h 54 % 0 mm
22:41 -2.1 °C -10.1 °C 1004.3 hPa SW 5.3 km/h 13 km/h 54 % 0 mm
22:46 -2.1 °C -9.9 °C 1003.9 hPa West 6.6 km/h 11.1 km/h 55 % 0 mm
22:51 -2 °C -9.8 °C 1003.9 hPa SSW 9.7 km/h 19.3 km/h 55 % 0 mm
22:55 -2.1 °C -10.1 °C 996.5 hPa WSW 12.9 km/h 20.4 km/h 54 % 0 mm
22:56 -2 °C -10.1 °C 1003.9 hPa West 9.3 km/h 14.8 km/h 54 % 0 mm
23:01 -2 °C -9.8 °C 1004.3 hPa West 7.1 km/h 16.1 km/h 55 % 0 mm
23:11 -2 °C -9.6 °C 1004.6 hPa NW 7.4 km/h 14.8 km/h 56 % 0 mm
23:16 -2 °C -9.8 °C 1004.3 hPa WSW 11.4 km/h 17.7 km/h 55 % 0 mm
23:17 -2 °C -9.8 °C 996.8 hPa SSW 11.3 km/h 22.2 km/h 55 % 0 mm
23:22 -1.9 °C -10.1 °C 1004.6 hPa WNW 9.2 km/h 22.2 km/h 54 % 0 mm
23:27 -2 °C -10.1 °C 1004.6 hPa West 9 km/h 16.7 km/h 54 % 0 mm
23:30 -1.9 °C -10.1 °C 996.8 hPa WSW 8.4 km/h 13 km/h 54 % 0 mm
23:32 -2 °C -10.1 °C 1004.3 hPa West 3.4 km/h 5.6 km/h 54 % 0 mm
23:42 -1.9 °C -10.1 °C 1004.6 hPa WSW 5.8 km/h 8 km/h 54 % 0 mm
23:47 -1.9 °C -9.8 °C 1004.6 hPa WSW 7.4 km/h 11.1 km/h 55 % 0 mm
23:51 -1.9 °C -9.8 °C 1004.6 hPa SW 8 km/h 19.3 km/h 55 % 0 mm
23:56 -1.9 °C -9.6 °C 1004.6 hPa West 6.3 km/h 20.4 km/h 56 % 0 mm
23:59 -1.9 °C -9.6 °C 997.2 hPa SW 10.3 km/h 13 km/h 56 % 0 mm
Crab Meadow Weather
Compliments of Weather Underground - 2.75 mb

Script developed by  Jim McMurry - jmcmurry@mwt.net Adapted for the template by  Wim van der Kuil - Leuven-Template.eu

Weather Terms: Heavy Sleet Warning - Accumulations of 1/2 inch or more of sleet.